Minot International Airport
KMOT : now visible

Airfield :











YOU CAN JOIN US ON...

 
LOGIN :

Register | Disclaimer

   EN    FR    IT 

 









Legend :    VFR   Marginal VFR   IFR   Intensive IFR   Very Intensive IFR
Visi :
Ceiling :
>= 8 km
>= 3000ft
5 to 8 km
1000 to 3000 ft
1500m to 5 km
500 to 1000 ft
800 to 1500m
200 to 500 ft
< 800m
< 200 ft
Symbols :   Thunderstorms  Fog  Heavy snow  Heavy precipitations  Wind > 20 kt






- Airport Elevation : 1716 ft
- IATA code : MOT


KMOT - Minot International

CURRENT METAR :
  • 170354Z 19006KT 10SM FEW008 OVC019 M03/M06 A2978 RMK AO2 SLP113 T10331061

EXPIRED METARs :
  • 170318Z 18006KT 10SM SCT009 OVC020 M04/M06 A2977 RMK AO2 T10391061
  • 170254Z 16005KT 10SM OVC009 M04/M07 A2977 RMK AO2 SLP111 T10391067 50005
  • 170243Z 16005KT 10SM OVC009 M04/M07 A2977 RMK AO2 T10391067
  • 170154Z 00000KT 10SM OVC012 M04/M07 A2977 RMK AO2 SLP112 T10391067

TAF KMOT
Valid from the 17 at 03:00 until the 18 at 00:00 UTC


170329Z 1703/1724 VRB03KT P6SM SCT009 OVC015
TEMPO 1703/1705 BKN009
FM171600 32010G18KT P6SM BKN015
FM172300 32009KT P6SM SCT120



MET'MAP, your aeronautical weather chart ! - Copyright ORBIFLY December 2007 - Disclaimer

ORBIFLY MET'MAP TEAM :

Programming & Development : Alexandra Zaïnal
Concept & original design : Baudouin d'Aumeries
Assistance for programming : Marc-Olivier Méhu
Technical & hardware support : Manuel Goepfert

Contact : metmap@orbifly.com




SOURCES & CREDITS :

   NOAA       Earth
Advisory